עמוד ראשי
METAR-TAF:

METAR-TAF

שדות תעופה :

טמוקו, צ'ילה

קו רוחב: 38-55-33S, קו אורך: 72-39-05W, גובה: 98מטר

תצפית מזג אוויר נוכחית

הדו"ח נערך לפני 49דקות, בשעה 09:00 UTC
רוח רגועה
טמפרטורת -1 צלסיוס
לחות 100%
לחץ 1023 hPa
ראות: 0300מטר
ערפל,

METAR: SCQP 240900Z 00000KT 0300 R01/0500 FG NSC M01/M01 Q1023

זמן: 05:49 (09:49 UTC)

תחזית

הדו"ח נערך לפני 3 שעות ו 51דקות, בשעה 05:58 UTC
תחזית בתוקף מ 24 ב 06 UTC עד 25 ב 06 UTC
רוח 2קשר עם כיוונים משתנים
ראות: 2000מטר
אד
זמנית מ -
24 ב 09 UTC עד 24 ב 14 UTC
ראות: 0500מטר
בגובה 200רגל
ערפל קפוא
יעשה מ
24 ב 15 UTC עד 24 ב 17 UTC
ראות 10 קילומטר או יותר
ללא עננים שבסיסם נמוך מ 5000 רגל או קומולונימבוס
יעשה מ
24 ב 17 UTC עד 24 ב 19 UTC
רוח 10קשר מכיוון דרום

TAF: SCQP 240558Z 2406/2506 VRB02KT 2000 BR NSC TNM02/2411Z TX10/2419Z TEMPO 2409/2414 0500 FZFG VV002 BECMG 2415/2417 CAVOK BECMG 2417/2419 18010KT

תצפיות ותחזיות מזג אוויר לגבי יותר מ- 4,000 שדות תעופה ברחבי העולם. דוחות METAR ו- TAF.

התחנות הזמינות מסומנות בנקודות צהובות ואדומות על גבי המפה.

העבר את העכבר לנקודה הצבעונית על מנת לראות את שם התחנה.

לאחר מכן, לחץ כדי לראות את תוכן ואת תחזיות מזג האוויר.

כדי לשנות את המפה: לחץ על הכפתורים הירוקים עם הפלוס השחור כדי להתקרב; על הכפתור הירוק עם המקף כדי להתרחק; או בחיצים הירוקים למפות סמוכות.


METAR-TAF: